createdAt,value
2023-03-10T00:00:39.878Z,3.70
2023-03-10T00:01:39.849Z,5.20
2023-03-10T00:02:39.817Z,4.00
2023-03-10T00:03:39.788Z,3.70
2023-03-10T00:04:39.828Z,5.50
2023-03-10T00:05:39.812Z,3.30
2023-03-10T00:06:39.706Z,4.50
2023-03-10T00:07:39.676Z,4.00
2023-03-10T00:08:39.647Z,3.90
2023-03-10T00:09:39.619Z,5.10
2023-03-10T00:10:39.620Z,3.90
2023-03-10T00:11:39.560Z,4.60
2023-03-10T00:12:39.532Z,5.10
2023-03-10T00:13:39.511Z,4.00
2023-03-10T00:14:39.471Z,5.00
2023-03-10T00:15:39.486Z,4.40
2023-03-10T00:16:39.415Z,4.20
2023-03-10T00:17:39.387Z,3.00
2023-03-10T00:18:39.357Z,4.50
2023-03-10T00:19:39.331Z,4.00
2023-03-10T00:20:39.299Z,4.40
2023-03-10T00:21:39.283Z,4.10
2023-03-10T00:22:39.281Z,4.00
2023-03-10T00:23:39.215Z,4.00
2023-03-10T00:24:39.186Z,4.20
2023-03-10T00:25:39.158Z,3.70
2023-03-10T00:26:39.259Z,3.10
2023-03-10T00:27:39.110Z,3.60
2023-03-10T00:28:39.074Z,3.80
2023-03-10T00:29:39.047Z,4.30
2023-03-10T00:30:39.017Z,3.60
2023-03-10T00:31:39.131Z,3.50
2023-03-10T00:32:39.032Z,3.40
2023-03-10T00:33:38.941Z,4.20
2023-03-10T00:34:38.908Z,4.00
2023-03-10T00:35:38.907Z,4.30
2023-03-10T00:36:38.851Z,4.20
2023-03-10T00:37:38.822Z,3.90
2023-03-10T00:38:38.794Z,3.70
2023-03-10T00:39:38.765Z,4.20
2023-03-10T00:40:38.735Z,4.40
2023-03-10T00:41:38.713Z,3.90
2023-03-10T00:42:38.699Z,4.30
2023-03-10T00:43:38.652Z,3.40
2023-03-10T00:44:38.625Z,4.40
2023-03-10T00:45:38.596Z,3.40
2023-03-10T00:46:38.730Z,3.80
2023-03-10T00:47:38.536Z,4.00
2023-03-10T00:48:38.515Z,4.00
2023-03-10T00:49:38.481Z,2.70
2023-03-10T00:50:38.450Z,4.10
2023-03-10T00:51:38.425Z,4.30
2023-03-10T00:52:38.393Z,3.60
2023-03-10T00:53:38.368Z,3.90
2023-03-10T00:54:38.337Z,3.80
2023-03-10T00:55:38.309Z,3.40
2023-03-10T00:56:38.279Z,6.50
2023-03-10T00:57:38.271Z,6.10
2023-03-10T00:58:38.240Z,4.60
2023-03-10T00:59:50.018Z,4.80
2023-03-10T01:00:38.163Z,4.70
2023-03-10T01:01:38.299Z,5.90
2023-03-10T01:02:38.112Z,3.90
2023-03-10T01:03:38.079Z,3.90
2023-03-10T01:04:38.084Z,6.40
2023-03-10T01:05:38.023Z,6.40
2023-03-10T01:06:38.012Z,4.90
2023-03-10T01:07:37.967Z,7.20
2023-03-10T01:08:37.945Z,6.80
2023-03-10T01:09:37.907Z,4.30
2023-03-10T01:10:37.878Z,6.00
2023-03-10T01:11:37.854Z,5.40
2023-03-10T01:12:37.823Z,6.30
2023-03-10T01:13:39.950Z,5.10
2023-03-10T01:14:37.798Z,5.70
2023-03-10T01:15:37.734Z,5.40
2023-03-10T01:16:37.718Z,5.60
2023-03-10T01:17:37.679Z,4.60
2023-03-10T01:18:37.648Z,4.10
2023-03-10T01:19:37.620Z,6.00
2023-03-10T01:20:37.592Z,5.50
2023-03-10T01:21:37.582Z,4.60
2023-03-10T01:22:37.531Z,6.20
2023-03-10T01:23:37.506Z,3.80
2023-03-10T01:24:37.479Z,4.10
2023-03-10T01:25:37.447Z,5.90
2023-03-10T01:26:37.419Z,5.00
2023-03-10T01:27:37.392Z,4.70
2023-03-10T01:28:37.363Z,6.30
2023-03-10T01:29:37.331Z,4.20
2023-03-10T01:30:37.320Z,5.20
2023-03-10T01:31:37.316Z,5.30
2023-03-10T01:32:37.323Z,3.70
2023-03-10T01:33:37.217Z,4.30
2023-03-10T01:34:37.184Z,4.50
2023-03-10T01:35:37.236Z,5.10
2023-03-10T01:36:37.132Z,4.50
2023-03-10T01:37:37.102Z,4.40
2023-03-10T01:38:37.077Z,4.40
2023-03-10T01:39:37.048Z,4.20
2023-03-10T01:40:37.013Z,3.40
2023-03-10T01:41:36.989Z,5.20
2023-03-10T01:42:36.958Z,4.40
2023-03-10T01:43:36.928Z,4.20
2023-03-10T01:44:36.901Z,5.30
2023-03-10T01:45:36.869Z,3.30
2023-03-10T01:46:36.901Z,4.30
2023-03-10T01:47:36.812Z,4.40
2023-03-10T01:48:36.783Z,4.30
2023-03-10T01:49:36.756Z,4.30
2023-03-10T01:50:36.724Z,3.40
2023-03-10T01:51:36.699Z,3.90
2023-03-10T01:52:36.665Z,3.00
2023-03-10T01:53:36.638Z,3.50
2023-03-10T01:54:36.609Z,4.00
2023-03-10T01:55:36.584Z,4.30
2023-03-10T01:56:36.552Z,3.70
2023-03-10T01:57:36.537Z,3.20
2023-03-10T01:58:36.497Z,3.10
2023-03-10T01:59:36.473Z,3.50
2023-03-10T02:00:36.474Z,3.70
2023-03-10T02:01:36.456Z,2.80
2023-03-10T02:02:36.500Z,2.80
2023-03-10T02:03:36.353Z,3.30
2023-03-10T02:04:36.334Z,4.50
2023-03-10T02:05:36.294Z,3.50
2023-03-10T02:06:36.264Z,2.70
2023-03-10T02:07:36.234Z,2.60
2023-03-10T02:08:36.209Z,3.30
2023-03-10T02:09:36.180Z,2.80
2023-03-10T02:10:36.151Z,2.80
2023-03-10T02:11:36.123Z,2.10
2023-03-10T02:12:36.096Z,6.00
2023-03-10T02:13:36.073Z,4.20
2023-03-10T02:14:36.050Z,4.50
2023-03-10T02:15:36.009Z,2.30
2023-03-10T02:16:36.029Z,2.90
2023-03-10T02:17:35.965Z,2.30
2023-03-10T02:18:35.943Z,2.20
2023-03-10T02:19:35.894Z,2.50
2023-03-10T02:20:35.863Z,3.10
2023-03-10T02:21:35.837Z,2.60
2023-03-10T02:22:35.807Z,2.30
2023-03-10T02:23:35.780Z,2.50
2023-03-10T02:24:35.748Z,2.60
2023-03-10T02:25:35.722Z,2.40
2023-03-10T02:26:35.688Z,2.60
2023-03-10T02:27:35.662Z,3.20
2023-03-10T02:28:35.630Z,2.60
2023-03-10T02:29:40.284Z,2.90
2023-03-10T02:30:35.576Z,2.10
2023-03-10T02:31:35.602Z,2.00
2023-03-10T02:32:35.570Z,2.30
2023-03-10T02:33:35.486Z,2.10
2023-03-10T02:34:35.479Z,2.80
2023-03-10T02:35:35.454Z,2.20
2023-03-10T02:36:35.396Z,3.10
2023-03-10T02:37:35.379Z,4.30
2023-03-10T02:38:35.340Z,2.30
2023-03-10T02:39:35.314Z,3.10
2023-03-10T02:40:35.289Z,3.10
2023-03-10T02:41:35.292Z,2.30
2023-03-10T02:42:35.220Z,2.00
2023-03-10T02:43:35.215Z,2.30
2023-03-10T02:44:35.160Z,2.50
2023-03-10T02:45:35.230Z,2.30
2023-03-10T02:46:35.100Z,2.30
2023-03-10T02:47:35.072Z,2.90
2023-03-10T02:48:35.038Z,3.60
2023-03-10T02:49:35.012Z,2.50
2023-03-10T02:50:34.999Z,2.40
2023-03-10T02:51:34.954Z,3.60
2023-03-10T02:52:34.927Z,3.70
2023-03-10T02:53:34.894Z,3.10
2023-03-10T02:54:34.862Z,3.00
2023-03-10T02:55:34.834Z,2.10
2023-03-10T02:56:34.806Z,1.90
2023-03-10T02:57:34.781Z,2.80
2023-03-10T02:58:34.744Z,2.50
2023-03-10T02:59:34.715Z,3.60
2023-03-10T03:00:34.683Z,2.60
2023-03-10T03:01:34.747Z,2.60
2023-03-10T03:02:34.624Z,2.60
2023-03-10T03:03:34.621Z,2.60
2023-03-10T03:04:34.565Z,1.80
2023-03-10T03:05:34.569Z,2.20
2023-03-10T03:06:34.524Z,2.10
2023-03-10T03:07:34.477Z,2.40
2023-03-10T03:08:34.454Z,2.40
2023-03-10T03:09:34.421Z,2.30
2023-03-10T03:10:34.386Z,2.10
2023-03-10T03:11:34.359Z,2.20
2023-03-10T03:12:34.340Z,2.40
2023-03-10T03:13:34.299Z,2.60
2023-03-10T03:14:34.268Z,2.00
2023-03-10T03:15:34.239Z,2.20
2023-03-10T03:16:34.300Z,2.40
2023-03-10T03:17:34.182Z,2.20
2023-03-10T03:18:34.150Z,2.60
2023-03-10T03:19:34.122Z,2.40
2023-03-10T03:20:34.089Z,2.20
2023-03-10T03:21:34.061Z,2.40
2023-03-10T03:22:34.053Z,2.00
2023-03-10T03:23:34.003Z,3.40
2023-03-10T03:24:33.979Z,2.40
2023-03-10T03:25:33.943Z,3.00
2023-03-10T03:26:33.911Z,2.10
2023-03-10T03:27:33.883Z,2.30
2023-03-10T03:28:33.853Z,2.70
2023-03-10T03:29:33.821Z,2.20
2023-03-10T03:30:33.793Z,3.10
2023-03-10T03:31:33.790Z,3.10
2023-03-10T03:32:33.802Z,3.30
2023-03-10T03:33:38.008Z,2.00
2023-03-10T03:34:33.676Z,2.50
2023-03-10T03:35:33.707Z,2.10
2023-03-10T03:36:33.613Z,2.50
2023-03-10T03:37:33.587Z,2.70
2023-03-10T03:38:33.597Z,2.70
2023-03-10T03:39:33.685Z,2.70
2023-03-10T03:40:33.494Z,2.30
2023-03-10T03:41:33.475Z,2.30
2023-03-10T03:42:33.446Z,2.60
2023-03-10T03:43:33.407Z,2.30
2023-03-10T03:44:33.385Z,2.50
2023-03-10T03:45:33.350Z,2.60
2023-03-10T03:46:33.344Z,2.90
2023-03-10T03:47:33.292Z,2.30
2023-03-10T03:48:33.265Z,2.20
2023-03-10T03:49:33.234Z,2.30
2023-03-10T03:50:33.208Z,2.60
2023-03-10T03:51:33.171Z,2.10
2023-03-10T03:52:33.152Z,2.70
2023-03-10T03:53:33.113Z,2.00
2023-03-10T03:54:33.107Z,2.30
2023-03-10T03:55:33.106Z,2.20
2023-03-10T03:56:33.038Z,2.70
2023-03-10T03:57:32.998Z,2.50
2023-03-10T03:58:32.971Z,4.50
2023-03-10T03:59:32.943Z,3.00
2023-03-10T04:00:32.906Z,2.60
2023-03-10T04:01:32.878Z,2.00
2023-03-10T04:02:32.951Z,1.90
2023-03-10T04:03:32.873Z,2.00
2023-03-10T04:04:32.793Z,2.50
2023-03-10T04:05:32.764Z,1.90
2023-03-10T04:06:34.339Z,2.10
2023-03-10T04:07:32.699Z,1.90
2023-03-10T04:08:32.670Z,2.30
2023-03-10T04:09:32.640Z,2.10
2023-03-10T04:10:32.643Z,1.70
2023-03-10T04:11:32.581Z,1.80
2023-03-10T04:12:32.552Z,2.20
2023-03-10T04:13:32.523Z,1.80
2023-03-10T04:14:32.496Z,2.10
2023-03-10T04:15:32.507Z,2.10
2023-03-10T04:16:32.443Z,1.70
2023-03-10T04:17:32.405Z,2.10
2023-03-10T04:18:32.374Z,1.80
2023-03-10T04:19:32.345Z,1.80
2023-03-10T04:20:32.319Z,1.80
2023-03-10T04:21:32.286Z,1.80
2023-03-10T04:22:32.266Z,1.80
2023-03-10T04:23:32.233Z,2.00
2023-03-10T04:24:32.198Z,2.00
2023-03-10T04:25:32.170Z,2.00
2023-03-10T04:26:32.156Z,1.80
2023-03-10T04:27:32.107Z,1.80
2023-03-10T04:28:32.079Z,1.90
2023-03-10T04:29:32.050Z,1.70
2023-03-10T04:30:32.020Z,2.10
2023-03-10T04:31:32.060Z,2.50
2023-03-10T04:32:32.021Z,2.00
2023-03-10T04:33:31.933Z,1.70
2023-03-10T04:34:31.904Z,1.60
2023-03-10T04:35:31.967Z,1.90
2023-03-10T04:36:31.845Z,1.80
2023-03-10T04:37:31.814Z,1.70
2023-03-10T04:38:31.816Z,2.30
2023-03-10T04:39:31.755Z,1.90
2023-03-10T04:40:31.727Z,2.00
2023-03-10T04:41:31.702Z,1.80
2023-03-10T04:42:31.688Z,2.10
2023-03-10T04:43:31.638Z,1.80
2023-03-10T04:44:31.791Z,1.90
2023-03-10T04:45:31.578Z,2.00
2023-03-10T04:46:31.587Z,1.90
2023-03-10T04:47:31.523Z,1.80
2023-03-10T04:48:31.490Z,2.50
2023-03-10T04:49:31.464Z,1.80
2023-03-10T04:50:31.434Z,1.80
2023-03-10T04:51:31.407Z,2.30
2023-03-10T04:52:31.376Z,1.70
2023-03-10T04:53:31.346Z,1.80
2023-03-10T04:54:31.315Z,1.70
2023-03-10T04:55:31.290Z,1.70
2023-03-10T04:56:31.256Z,2.00
2023-03-10T04:57:31.224Z,1.80
2023-03-10T04:58:31.218Z,1.90
2023-03-10T04:59:31.164Z,1.70
2023-03-10T05:00:31.200Z,1.90
2023-03-10T05:01:31.120Z,1.70
2023-03-10T05:02:31.081Z,1.90
2023-03-10T05:03:31.043Z,1.90
2023-03-10T05:04:31.080Z,1.90
2023-03-10T05:05:30.984Z,2.00
2023-03-10T05:06:30.954Z,2.70
2023-03-10T05:07:30.937Z,1.70
2023-03-10T05:08:30.896Z,1.70
2023-03-10T05:09:30.883Z,2.00
2023-03-10T05:10:30.836Z,2.20
2023-03-10T05:11:30.808Z,2.10
2023-03-10T05:12:30.775Z,1.70
2023-03-10T05:13:31.894Z,1.90
2023-03-10T05:14:30.849Z,1.90
2023-03-10T05:15:30.690Z,1.70
2023-03-10T05:16:30.742Z,2.70
2023-03-10T05:17:30.632Z,1.80
2023-03-10T05:18:30.604Z,1.90
2023-03-10T05:19:30.573Z,2.20
2023-03-10T05:20:30.540Z,2.50
2023-03-10T05:21:30.509Z,2.00
2023-03-10T05:22:30.481Z,2.20
2023-03-10T05:23:30.448Z,1.90
2023-03-10T05:24:30.423Z,2.40
2023-03-10T05:25:30.407Z,1.90
2023-03-10T05:26:32.071Z,1.80
2023-03-10T05:27:30.332Z,2.10
2023-03-10T05:28:30.307Z,2.20
2023-03-10T05:29:30.278Z,2.00
2023-03-10T05:30:30.263Z,2.40
2023-03-10T05:31:30.277Z,1.80
2023-03-10T05:32:30.259Z,1.80
2023-03-10T05:33:31.501Z,2.10
2023-03-10T05:34:30.129Z,2.20
2023-03-10T05:35:30.129Z,1.80
2023-03-10T05:36:30.069Z,2.10
2023-03-10T05:37:30.047Z,2.40
2023-03-10T05:38:30.010Z,2.40
2023-03-10T05:39:30.003Z,2.70
2023-03-10T05:40:29.953Z,2.30
2023-03-10T05:41:29.925Z,2.00
2023-03-10T05:42:29.894Z,2.20
2023-03-10T05:43:29.866Z,2.00
2023-03-10T05:44:29.837Z,2.30
2023-03-10T05:45:29.812Z,1.80
2023-03-10T05:46:29.901Z,2.10
2023-03-10T05:47:29.755Z,2.50
2023-03-10T05:48:29.724Z,2.50
2023-03-10T05:49:29.693Z,2.60
2023-03-10T05:50:29.680Z,2.10
2023-03-10T05:51:29.637Z,1.90
2023-03-10T05:52:29.628Z,2.10
2023-03-10T05:53:29.589Z,2.10
2023-03-10T05:54:29.545Z,2.40
2023-03-10T05:55:29.517Z,1.90
2023-03-10T05:56:29.489Z,2.30
2023-03-10T05:57:29.454Z,2.00
2023-03-10T05:58:29.431Z,3.30
2023-03-10T05:59:29.395Z,1.90
2023-03-10T06:00:29.367Z,3.10
2023-03-10T06:01:29.337Z,2.10
2023-03-10T06:02:29.376Z,1.90
2023-03-10T06:03:29.465Z,2.30
2023-03-10T06:04:29.333Z,2.10
2023-03-10T06:05:29.220Z,2.20
2023-03-10T06:06:29.210Z,1.80
2023-03-10T06:07:29.163Z,2.50
2023-03-10T06:08:29.133Z,2.10
2023-03-10T06:09:29.101Z,3.10
2023-03-10T06:10:29.074Z,2.00
2023-03-10T06:11:29.081Z,3.20
2023-03-10T06:12:29.026Z,2.30
2023-03-10T06:13:28.988Z,2.10
2023-03-10T06:14:28.961Z,2.10
2023-03-10T06:15:28.926Z,2.00
2023-03-10T06:16:29.036Z,2.30
2023-03-10T06:17:28.869Z,2.10
2023-03-10T06:18:28.981Z,2.90
2023-03-10T06:19:28.813Z,2.20
2023-03-10T06:20:28.789Z,2.30
2023-03-10T06:21:28.754Z,2.60
2023-03-10T06:22:31.178Z,2.40
2023-03-10T06:23:28.688Z,3.00
2023-03-10T06:24:28.659Z,2.30
2023-03-10T06:25:28.628Z,2.50
2023-03-10T06:26:28.600Z,3.20
2023-03-10T06:27:28.570Z,2.80
2023-03-10T06:28:28.540Z,3.90
2023-03-10T06:29:28.510Z,2.20
2023-03-10T06:30:28.486Z,2.00
2023-03-10T06:31:28.478Z,2.60
2023-03-10T06:32:28.538Z,3.30
2023-03-10T06:33:28.394Z,3.40
2023-03-10T06:34:28.386Z,2.50
2023-03-10T06:35:28.335Z,3.10
2023-03-10T06:36:28.305Z,2.60
2023-03-10T06:37:28.345Z,2.80
2023-03-10T06:38:28.247Z,2.80
2023-03-10T06:39:28.217Z,2.30
2023-03-10T06:40:28.195Z,4.40
2023-03-10T06:41:28.219Z,2.60
2023-03-10T06:42:28.145Z,2.80
2023-03-10T06:43:28.100Z,2.30
2023-03-10T06:44:28.078Z,2.30
2023-03-10T06:45:28.052Z,3.60
2023-03-10T06:46:28.060Z,2.80
2023-03-10T06:47:27.981Z,2.20
2023-03-10T06:48:27.950Z,2.40
2023-03-10T06:49:27.923Z,2.70
2023-03-10T06:50:29.852Z,2.10
2023-03-10T06:51:27.863Z,2.20
2023-03-10T06:52:27.828Z,3.40
2023-03-10T06:53:27.795Z,3.20
2023-03-10T06:54:27.769Z,4.10
2023-03-10T06:55:27.737Z,4.40
2023-03-10T06:56:27.715Z,4.30
2023-03-10T06:57:27.677Z,4.40
2023-03-10T06:58:27.649Z,3.80
2023-03-10T06:59:27.618Z,2.80
2023-03-10T07:00:27.588Z,3.50
2023-03-10T07:01:27.679Z,2.80
2023-03-10T07:02:27.556Z,4.40
2023-03-10T07:03:27.495Z,3.10
2023-03-10T07:04:27.527Z,4.20
2023-03-10T07:05:27.506Z,2.80
2023-03-10T07:06:27.495Z,6.00
2023-03-10T07:07:27.369Z,2.80
2023-03-10T07:08:27.340Z,3.40
2023-03-10T07:09:27.314Z,3.40
2023-03-10T07:10:27.276Z,3.10
2023-03-10T07:11:27.244Z,2.70
2023-03-10T07:12:27.216Z,2.00
2023-03-10T07:13:27.182Z,3.40
2023-03-10T07:14:27.168Z,2.60
2023-03-10T07:15:27.131Z,2.90
2023-03-10T07:16:27.176Z,2.20
2023-03-10T07:17:27.059Z,2.80
2023-03-10T07:18:27.029Z,2.20
2023-03-10T07:19:26.998Z,2.50
2023-03-10T07:20:26.979Z,2.00
2023-03-10T07:21:26.939Z,2.20
2023-03-10T07:22:26.926Z,4.10
2023-03-10T07:23:26.873Z,2.40
2023-03-10T07:24:26.861Z,2.40
2023-03-10T07:25:26.809Z,2.30
2023-03-10T07:26:26.786Z,3.20
2023-03-10T07:27:26.751Z,2.10
2023-03-10T07:28:26.718Z,2.70
2023-03-10T07:29:26.711Z,2.30
2023-03-10T07:30:26.657Z,3.00
2023-03-10T07:31:26.684Z,2.30
2023-03-10T07:32:26.718Z,3.70
2023-03-10T07:33:26.564Z,3.20
2023-03-10T07:34:26.534Z,2.30
2023-03-10T07:35:26.502Z,2.30
2023-03-10T07:36:26.535Z,3.80
2023-03-10T07:37:26.443Z,3.30
2023-03-10T07:38:26.439Z,2.60
2023-03-10T07:39:26.400Z,2.40
2023-03-10T07:40:26.351Z,3.10
2023-03-10T07:41:26.320Z,3.00
2023-03-10T07:42:26.294Z,3.50
2023-03-10T07:43:26.259Z,2.70
2023-03-10T07:44:26.252Z,3.30
2023-03-10T07:45:26.226Z,4.00
2023-03-10T07:46:26.251Z,3.70
2023-03-10T07:47:26.182Z,3.40
2023-03-10T07:48:26.108Z,4.00
2023-03-10T07:49:26.075Z,4.00
2023-03-10T07:50:26.046Z,3.20
2023-03-10T07:51:26.026Z,2.90
2023-03-10T07:52:25.988Z,2.80
2023-03-10T07:53:25.956Z,3.60
2023-03-10T07:54:25.997Z,3.30
2023-03-10T07:55:25.893Z,2.70
2023-03-10T07:56:25.864Z,2.60
2023-03-10T07:57:25.831Z,2.60
2023-03-10T07:58:25.804Z,1.90
2023-03-10T07:59:25.771Z,3.00
2023-03-10T08:00:25.745Z,2.70
2023-03-10T08:01:25.709Z,2.30
2023-03-10T08:02:25.680Z,2.40
2023-03-10T08:03:25.716Z,2.60
2023-03-10T08:04:25.800Z,2.10
2023-03-10T08:05:25.701Z,2.50
2023-03-10T08:06:25.557Z,2.50
2023-03-10T08:07:25.525Z,2.20
2023-03-10T08:08:25.500Z,3.20
2023-03-10T08:09:25.464Z,2.10
2023-03-10T08:10:25.461Z,1.80
2023-03-10T08:11:25.414Z,2.20
2023-03-10T08:12:25.376Z,2.20
2023-03-10T08:13:25.404Z,1.90
2023-03-10T08:14:25.308Z,2.60
2023-03-10T08:15:25.281Z,1.80
2023-03-10T08:16:25.429Z,1.70
2023-03-10T08:17:25.224Z,1.80
2023-03-10T08:18:25.189Z,2.00
2023-03-10T08:19:25.163Z,1.80
2023-03-10T08:20:25.127Z,1.90
2023-03-10T08:21:25.099Z,2.00
2023-03-10T08:22:25.074Z,1.90
2023-03-10T08:23:25.066Z,2.10
2023-03-10T08:24:25.024Z,1.90
2023-03-10T08:25:24.973Z,2.30
2023-03-10T08:26:24.973Z,1.70
2023-03-10T08:27:24.916Z,1.60
2023-03-10T08:28:24.884Z,1.60
2023-03-10T08:29:24.852Z,1.90
2023-03-10T08:30:24.856Z,2.40
2023-03-10T08:31:24.821Z,1.80
2023-03-10T08:32:24.781Z,1.70
2023-03-10T08:33:24.732Z,1.80
2023-03-10T08:34:24.704Z,1.90
2023-03-10T08:35:24.676Z,2.20
2023-03-10T08:36:24.704Z,1.80
2023-03-10T08:37:24.611Z,2.00
2023-03-10T08:38:24.583Z,2.50
2023-03-10T08:39:26.640Z,2.30
2023-03-10T08:40:24.520Z,2.00
2023-03-10T08:41:24.494Z,2.10
2023-03-10T08:42:24.544Z,2.60
2023-03-10T08:43:24.431Z,3.00
2023-03-10T08:44:24.401Z,1.80
2023-03-10T08:45:24.373Z,4.10
2023-03-10T08:46:24.414Z,2.10
2023-03-10T08:47:25.579Z,3.50
2023-03-10T08:48:24.283Z,3.70
2023-03-10T08:49:24.257Z,2.80
2023-03-10T08:50:24.224Z,3.60
2023-03-10T08:51:24.196Z,2.00
2023-03-10T08:52:24.167Z,7.60
2023-03-10T08:53:24.134Z,3.30
2023-03-10T08:54:24.107Z,2.30
2023-03-10T08:55:24.076Z,2.70
2023-03-10T08:56:24.054Z,3.90
2023-03-10T08:57:24.019Z,3.20
2023-03-10T08:58:24.034Z,3.10
2023-03-10T08:59:23.957Z,2.60
2023-03-10T09:00:23.925Z,3.00
2023-03-10T09:01:23.897Z,3.70
2023-03-10T09:02:23.979Z,3.60
2023-03-10T09:03:23.938Z,3.40
2023-03-10T09:04:23.814Z,2.50
2023-03-10T09:05:23.778Z,2.70
2023-03-10T09:06:23.748Z,3.70
2023-03-10T09:07:23.720Z,3.90
2023-03-10T09:08:25.142Z,3.70
2023-03-10T09:09:23.660Z,3.00
2023-03-10T09:10:23.630Z,2.70
2023-03-10T09:11:23.603Z,2.80
2023-03-10T09:12:23.571Z,3.70
2023-03-10T09:13:23.543Z,2.90
2023-03-10T09:14:23.537Z,3.90
2023-03-10T09:15:23.489Z,4.00
2023-03-10T09:16:23.503Z,3.70
2023-03-10T09:17:23.426Z,3.50
2023-03-10T09:18:23.396Z,3.50
2023-03-10T09:19:23.370Z,3.00
2023-03-10T09:20:23.335Z,3.40
2023-03-10T09:21:23.307Z,3.20
2023-03-10T09:22:23.288Z,4.20
2023-03-10T09:23:23.259Z,3.00
2023-03-10T09:24:23.218Z,3.00
2023-03-10T09:25:23.192Z,4.60
2023-03-10T09:26:23.161Z,3.80
2023-03-10T09:27:23.132Z,2.70
2023-03-10T09:28:23.100Z,3.40
2023-03-10T09:29:40.289Z,2.80
2023-03-10T09:30:23.080Z,4.60
2023-03-10T09:31:23.238Z,5.70
2023-03-10T09:32:23.157Z,3.60
2023-03-10T09:33:22.955Z,2.90
2023-03-10T09:34:22.930Z,3.20
2023-03-10T09:35:22.919Z,3.60
2023-03-10T09:36:22.917Z,3.90
2023-03-10T09:37:22.844Z,3.20
2023-03-10T09:38:22.816Z,3.60
2023-03-10T09:39:22.783Z,4.70
2023-03-10T09:40:22.765Z,3.10
2023-03-10T09:41:22.729Z,3.40
2023-03-10T09:42:36.462Z,4.10
2023-03-10T09:43:24.372Z,2.90
2023-03-10T09:44:22.637Z,3.20
2023-03-10T09:45:22.611Z,3.10
2023-03-10T09:46:22.693Z,3.10
2023-03-10T09:47:22.565Z,3.00
2023-03-10T09:48:25.340Z,3.80
2023-03-10T09:49:22.493Z,3.00
2023-03-10T09:50:22.483Z,2.80
2023-03-10T09:51:22.444Z,3.30
2023-03-10T09:52:22.409Z,3.00
2023-03-10T09:53:22.383Z,3.10
2023-03-10T09:54:22.351Z,3.10
2023-03-10T09:55:22.326Z,3.50
2023-03-10T09:56:22.300Z,2.90
2023-03-10T09:57:22.283Z,3.00
2023-03-10T09:58:22.245Z,3.10
2023-03-10T09:59:22.224Z,3.50
2023-03-10T10:00:22.175Z,2.60
2023-03-10T10:01:22.168Z,2.50
2023-03-10T10:02:22.160Z,2.80
2023-03-10T10:03:22.156Z,2.30
2023-03-10T10:04:22.203Z,3.30
2023-03-10T10:05:22.031Z,4.00
2023-03-10T10:06:22.005Z,4.00
2023-03-10T10:07:21.971Z,3.90
2023-03-10T10:08:21.950Z,2.30
2023-03-10T10:09:21.922Z,3.30
2023-03-10T10:10:21.882Z,3.00
2023-03-10T10:11:21.856Z,2.70
2023-03-10T10:12:21.824Z,2.80
2023-03-10T10:13:21.795Z,3.20
2023-03-10T10:14:29.593Z,4.80
2023-03-10T10:15:21.738Z,3.60
2023-03-10T10:16:33.421Z,3.70
2023-03-10T10:17:21.751Z,3.10
2023-03-10T10:18:24.919Z,2.70
2023-03-10T10:19:21.619Z,2.40
2023-03-10T10:20:21.592Z,4.30
2023-03-10T10:21:24.024Z,3.40
2023-03-10T10:22:21.530Z,5.00
2023-03-10T10:23:21.513Z,3.20
2023-03-10T10:24:21.470Z,2.50
2023-03-10T10:25:21.445Z,3.40
2023-03-10T10:26:21.413Z,2.80
2023-03-10T10:27:23.252Z,2.80
2023-03-10T10:28:21.354Z,3.40
2023-03-10T10:29:21.329Z,2.10
2023-03-10T10:30:21.305Z,2.40
2023-03-10T10:31:21.487Z,2.10
2023-03-10T10:32:21.318Z,3.20
2023-03-10T10:33:21.212Z,3.30
2023-03-10T10:34:21.207Z,3.10
2023-03-10T10:35:21.152Z,2.40
2023-03-10T10:36:21.121Z,2.50
2023-03-10T10:37:21.101Z,2.30
2023-03-10T10:38:21.068Z,2.40
2023-03-10T10:39:21.045Z,2.70
2023-03-10T10:40:21.019Z,2.70
2023-03-10T10:41:20.983Z,2.80
2023-03-10T10:42:20.963Z,2.60
2023-03-10T10:43:20.925Z,2.40
2023-03-10T10:44:20.903Z,2.30
2023-03-10T10:45:20.865Z,1.90
2023-03-10T10:46:20.863Z,2.30
2023-03-10T10:47:20.811Z,1.90
2023-03-10T10:48:20.782Z,2.30
2023-03-10T10:49:20.752Z,2.10
2023-03-10T10:50:20.751Z,2.00
2023-03-10T10:51:20.700Z,2.40
2023-03-10T10:52:20.670Z,2.30
2023-03-10T10:53:20.635Z,3.60
2023-03-10T10:54:20.607Z,2.00
2023-03-10T10:55:20.579Z,2.50
2023-03-10T10:56:20.565Z,2.30
2023-03-10T10:57:20.564Z,3.00
2023-03-10T10:58:20.492Z,2.00
2023-03-10T10:59:20.474Z,2.10
2023-03-10T11:00:20.541Z,2.10
2023-03-10T11:01:20.509Z,2.30
2023-03-10T11:02:20.424Z,2.30
2023-03-10T11:03:20.388Z,2.10
2023-03-10T11:04:20.323Z,2.90
2023-03-10T11:05:20.309Z,2.10
2023-03-10T11:06:20.288Z,1.90
2023-03-10T11:07:20.240Z,2.50
2023-03-10T11:08:20.209Z,2.30
2023-03-10T11:09:20.193Z,2.40
2023-03-10T11:10:20.311Z,2.10
2023-03-10T11:11:20.134Z,2.20
2023-03-10T11:12:20.326Z,2.10
2023-03-10T11:13:20.072Z,1.90
2023-03-10T11:14:20.042Z,2.00
2023-03-10T11:15:20.038Z,2.40
2023-03-10T11:16:19.984Z,2.20
2023-03-10T11:17:19.957Z,2.10
2023-03-10T11:18:19.928Z,1.90
2023-03-10T11:19:19.903Z,2.10
2023-03-10T11:20:19.905Z,1.90
2023-03-10T11:21:19.855Z,2.60
2023-03-10T11:22:19.985Z,2.10
2023-03-10T11:23:19.787Z,2.30
2023-03-10T11:24:19.757Z,2.30
2023-03-10T11:25:19.729Z,2.10
2023-03-10T11:26:19.700Z,2.00
2023-03-10T11:27:19.676Z,2.00
2023-03-10T11:28:19.647Z,2.10
2023-03-10T11:29:19.729Z,2.10
2023-03-10T11:30:19.676Z,2.90
2023-03-10T11:31:19.629Z,3.10
2023-03-10T11:32:19.561Z,2.10
2023-03-10T11:33:19.504Z,2.00
2023-03-10T11:34:19.479Z,2.30
2023-03-10T11:35:19.462Z,2.10
2023-03-10T11:36:19.454Z,2.20
2023-03-10T11:37:19.392Z,2.20
2023-03-10T11:38:19.391Z,2.00
2023-03-10T11:39:19.335Z,2.00
2023-03-10T11:40:19.368Z,2.40
2023-03-10T11:41:19.298Z,2.20
2023-03-10T11:42:19.250Z,2.30
2023-03-10T11:43:19.227Z,2.10
2023-03-10T11:44:19.203Z,2.40
2023-03-10T11:45:19.166Z,2.00
2023-03-10T11:46:19.205Z,2.20
2023-03-10T11:47:19.115Z,2.10
2023-03-10T11:48:19.086Z,2.00
2023-03-10T11:49:19.052Z,2.20
2023-03-10T11:50:19.147Z,2.50
2023-03-10T11:51:19.000Z,2.20
2023-03-10T11:52:18.966Z,1.90
2023-03-10T11:53:18.939Z,2.50
2023-03-10T11:54:18.927Z,2.30
2023-03-10T11:55:18.886Z,2.20
2023-03-10T11:56:18.853Z,1.90
2023-03-10T11:57:18.834Z,2.10
2023-03-10T11:58:18.798Z,2.30
2023-03-10T11:59:18.774Z,2.00
2023-03-10T12:00:18.738Z,2.60
2023-03-10T12:01:18.709Z,2.20
2023-03-10T12:02:18.691Z,2.00
2023-03-10T12:03:18.716Z,2.70
2023-03-10T12:04:18.622Z,2.40
2023-03-10T12:05:18.654Z,1.90
2023-03-10T12:06:18.565Z,2.00
2023-03-10T12:07:18.537Z,2.40
2023-03-10T12:08:18.505Z,3.10
2023-03-10T12:09:18.477Z,1.80
2023-03-10T12:10:18.473Z,1.90
2023-03-10T12:11:18.421Z,2.10
2023-03-10T12:12:18.391Z,2.00
2023-03-10T12:13:18.360Z,2.10
2023-03-10T12:14:18.333Z,2.00
2023-03-10T12:15:18.302Z,2.10
2023-03-10T12:16:18.373Z,2.00
2023-03-10T12:17:18.244Z,2.60
2023-03-10T12:18:18.217Z,2.50
2023-03-10T12:19:18.185Z,2.00
2023-03-10T12:20:18.169Z,1.70
2023-03-10T12:21:18.126Z,2.60
2023-03-10T12:22:18.095Z,2.50
2023-03-10T12:23:18.065Z,2.80
2023-03-10T12:24:18.036Z,1.70
2023-03-10T12:25:18.010Z,1.90
2023-03-10T12:26:18.027Z,2.10
2023-03-10T12:27:17.947Z,1.70
2023-03-10T12:28:17.943Z,1.90
2023-03-10T12:29:18.087Z,1.90
2023-03-10T12:30:17.856Z,2.00
2023-03-10T12:31:17.854Z,2.20
2023-03-10T12:32:17.819Z,1.80
2023-03-10T12:33:17.765Z,2.60
2023-03-10T12:34:17.735Z,2.00
2023-03-10T12:35:17.719Z,1.70
2023-03-10T12:36:17.717Z,1.90
2023-03-10T12:37:17.646Z,1.90
2023-03-10T12:38:17.616Z,1.70
2023-03-10T12:39:17.593Z,1.90
2023-03-10T12:40:17.557Z,2.00
2023-03-10T12:41:17.530Z,1.80
2023-03-10T12:42:17.517Z,1.70
2023-03-10T12:43:17.469Z,2.20
2023-03-10T12:44:17.437Z,1.90
2023-03-10T12:45:17.413Z,2.10
2023-03-10T12:46:17.481Z,1.90
2023-03-10T12:47:17.362Z,2.10
2023-03-10T12:48:17.320Z,2.10
2023-03-10T12:49:17.293Z,1.90
2023-03-10T12:50:17.267Z,3.10
2023-03-10T12:51:18.504Z,2.10
2023-03-10T12:52:17.206Z,1.80
2023-03-10T12:53:17.185Z,2.10
2023-03-10T12:54:17.146Z,2.00
2023-03-10T12:55:17.125Z,2.00
2023-03-10T12:56:17.089Z,2.00
2023-03-10T12:57:17.075Z,2.10
2023-03-10T12:58:17.102Z,2.60
2023-03-10T12:59:17.002Z,1.90
2023-03-10T13:00:16.977Z,2.40
2023-03-10T13:01:16.950Z,2.00
2023-03-10T13:02:16.920Z,2.10
2023-03-10T13:03:16.974Z,2.20
2023-03-10T13:04:16.852Z,1.90
2023-03-10T13:05:16.824Z,1.90
2023-03-10T13:06:16.796Z,2.70
2023-03-10T13:07:16.771Z,2.20
2023-03-10T13:08:16.739Z,2.10
2023-03-10T13:09:16.706Z,2.10
2023-03-10T13:10:16.678Z,4.40
2023-03-10T13:11:16.650Z,1.70
2023-03-10T13:12:16.622Z,2.00
2023-03-10T13:13:16.592Z,1.80
2023-03-10T13:14:16.595Z,1.70
2023-03-10T13:15:16.536Z,2.00
2023-03-10T13:16:16.548Z,2.30
2023-03-10T13:17:16.478Z,2.90
2023-03-10T13:18:16.450Z,1.90